createdAt,value
2022-12-09T00:00:07.317Z,97167.97
2022-12-09T00:02:34.244Z,97147.91
2022-12-09T00:05:01.424Z,97183.81
2022-12-09T00:07:28.475Z,97160.09
2022-12-09T00:09:59.026Z,97179.31
2022-12-09T00:12:25.868Z,97183.97
2022-12-09T00:14:53.001Z,97161.28
2022-12-09T00:17:21.082Z,97176.69
2022-12-09T00:19:48.856Z,97181.75
2022-12-09T00:22:15.322Z,97161.56
2022-12-09T00:24:44.653Z,97173.56
2022-12-09T00:27:11.394Z,97166.81
2022-12-09T00:29:38.048Z,97162.38
2022-12-09T00:32:05.103Z,97164.63
2022-12-09T00:34:32.605Z,97171.25
2022-12-09T00:36:59.109Z,97173.06
2022-12-09T00:39:26.919Z,97041.97
2022-12-09T00:41:53.582Z,97167.88
2022-12-09T00:44:20.346Z,97077.38
2022-12-09T00:46:47.374Z,97099.13
2022-12-09T00:49:14.383Z,97165.19
2022-12-09T00:51:41.287Z,97121.53
2022-12-09T00:54:09.665Z,97091.63
2022-12-09T00:56:37.352Z,97136.47
2022-12-09T00:59:06.441Z,97134.31
2022-12-09T01:01:33.895Z,97163.88
2022-12-09T01:04:02.586Z,97164.53
2022-12-09T01:06:29.529Z,97144.31
2022-12-09T01:08:56.480Z,97118.38
2022-12-09T01:11:27.813Z,97064.91
2022-12-09T01:14:01.138Z,97155.94
2022-12-09T01:16:32.215Z,97169.94
2022-12-09T01:19:04.220Z,97165.88
2022-12-09T01:21:33.229Z,97158.31
2022-12-09T01:24:00.771Z,97152.59
2022-12-09T01:26:28.060Z,97164.00
2022-12-09T01:28:57.014Z,97161.22
2022-12-09T01:31:25.701Z,97171.66
2022-12-09T01:33:54.749Z,97167.25
2022-12-09T01:36:28.486Z,97170.69
2022-12-09T01:39:00.282Z,97166.97
2022-12-09T01:41:28.065Z,97157.59
2022-12-09T01:44:24.581Z,97152.72
2022-12-09T01:47:00.225Z,97123.81
2022-12-09T01:49:42.536Z,97147.91
2022-12-09T01:52:20.311Z,97121.53
2022-12-09T01:54:49.038Z,97127.97
2022-12-09T01:57:16.462Z,97153.78
2022-12-09T01:59:44.810Z,97151.41
2022-12-09T02:02:16.469Z,97064.72
2022-12-09T02:04:47.987Z,97078.94
2022-12-09T02:07:15.923Z,97132.31
2022-12-09T02:09:43.104Z,97035.44
2022-12-09T02:12:10.080Z,97127.13
2022-12-09T02:14:45.417Z,97130.34
2022-12-09T02:17:45.403Z,97125.41
2022-12-09T02:20:32.402Z,97128.28
2022-12-09T02:23:18.141Z,97117.81
2022-12-09T02:25:52.965Z,97112.22
2022-12-09T02:28:57.161Z,97118.19
2022-12-09T02:31:27.338Z,97115.56
2022-12-09T02:34:12.970Z,97110.69
2022-12-09T02:37:12.590Z,97096.16
2022-12-09T02:40:03.077Z,97112.78
2022-12-09T02:42:34.668Z,97106.00
2022-12-09T02:45:07.640Z,97104.00
2022-12-09T02:47:43.122Z,97081.53
2022-12-09T02:50:17.261Z,97095.72
2022-12-09T02:52:46.618Z,97068.38
2022-12-09T02:55:17.178Z,97091.47
2022-12-09T02:57:44.173Z,97086.06
2022-12-09T03:00:15.589Z,97050.59
2022-12-09T03:02:51.551Z,97083.69
2022-12-09T03:05:27.528Z,97079.09
2022-12-09T03:08:07.013Z,97064.13
2022-12-09T03:10:50.713Z,97059.88
2022-12-09T03:13:49.868Z,97074.50
2022-12-09T03:16:32.637Z,97074.84
2022-12-09T03:19:13.374Z,97072.78
2022-12-09T03:21:45.993Z,97037.78
2022-12-09T03:24:18.953Z,97069.97
2022-12-09T03:26:47.601Z,97027.94
2022-12-09T03:29:19.344Z,97060.31
2022-12-09T03:31:48.555Z,96985.03
2022-12-09T03:34:21.423Z,97054.00
2022-12-09T03:36:52.712Z,97039.25
2022-12-09T03:39:26.260Z,97009.91
2022-12-09T03:41:59.144Z,97050.88
2022-12-09T03:44:34.894Z,97048.72
2022-12-09T03:47:03.355Z,97049.28
2022-12-09T03:49:30.138Z,96973.78
2022-12-09T03:52:29.419Z,97057.69
2022-12-09T03:55:01.113Z,97015.09
2022-12-09T03:57:27.849Z,97047.28
2022-12-09T04:00:01.603Z,97051.44
2022-12-09T04:02:29.398Z,97054.06
2022-12-09T04:04:56.271Z,97017.69
2022-12-09T04:07:22.992Z,97008.94
2022-12-09T04:09:51.268Z,97053.50
2022-12-09T04:12:18.854Z,97010.22
2022-12-09T04:14:45.877Z,97033.88
2022-12-09T04:17:12.937Z,96941.88
2022-12-09T04:19:39.616Z,97039.06
2022-12-09T04:22:09.021Z,97019.94
2022-12-09T04:24:36.891Z,97036.19
2022-12-09T04:27:06.398Z,96986.13
2022-12-09T04:29:33.219Z,97013.84
2022-12-09T04:31:59.963Z,97059.19
2022-12-09T04:34:27.060Z,97031.06
2022-12-09T04:36:53.744Z,97043.50
2022-12-09T04:39:20.588Z,97038.56
2022-12-09T04:41:47.141Z,97048.03
2022-12-09T04:44:13.690Z,96984.59
2022-12-09T04:46:40.437Z,97043.31
2022-12-09T04:49:07.518Z,96942.63
2022-12-09T04:51:39.390Z,97027.72
2022-12-09T04:54:11.166Z,97033.38
2022-12-09T04:56:43.749Z,97011.44
2022-12-09T04:59:14.746Z,96949.28
2022-12-09T05:01:41.760Z,96949.47
2022-12-09T05:04:10.398Z,97003.81
2022-12-09T05:06:37.295Z,96983.25
2022-12-09T05:09:04.644Z,97020.81
2022-12-09T05:11:31.459Z,96998.13
2022-12-09T05:13:59.801Z,96924.59
2022-12-09T05:16:27.860Z,96936.38
2022-12-09T05:18:56.225Z,96884.47
2022-12-09T05:21:23.121Z,96959.53
2022-12-09T05:23:51.110Z,96980.94
2022-12-09T05:26:21.674Z,96997.47
2022-12-09T05:28:49.405Z,96981.56
2022-12-09T05:31:19.923Z,96999.91
2022-12-09T05:33:47.845Z,97000.19
2022-12-09T05:36:19.261Z,96999.16
2022-12-09T05:38:47.570Z,96926.75
2022-12-09T05:41:14.831Z,96973.03
2022-12-09T05:43:41.723Z,96916.03
2022-12-09T05:46:08.731Z,96983.50
2022-12-09T05:48:36.402Z,96960.31
2022-12-09T05:51:09.871Z,96979.00
2022-12-09T05:53:36.847Z,96956.91
2022-12-09T05:56:04.904Z,96942.34
2022-12-09T05:58:32.056Z,96988.34
2022-12-09T06:01:07.135Z,96980.31
2022-12-09T06:03:35.129Z,96987.47
2022-12-09T06:06:11.789Z,96945.53
2022-12-09T06:08:41.222Z,96978.34
2022-12-09T06:11:18.069Z,96973.44
2022-12-09T06:13:45.908Z,96958.09
2022-12-09T06:16:15.356Z,96983.25
2022-12-09T06:18:42.727Z,96947.63
2022-12-09T06:21:12.742Z,96957.75
2022-12-09T06:23:41.431Z,96969.75
2022-12-09T06:26:16.033Z,96942.41
2022-12-09T06:28:43.011Z,96939.03
2022-12-09T06:31:10.948Z,96979.50
2022-12-09T06:33:54.225Z,96964.47
2022-12-09T06:36:22.720Z,96910.19
2022-12-09T06:38:51.472Z,96910.09
2022-12-09T06:41:18.073Z,96963.44
2022-12-09T06:43:44.864Z,96961.34
2022-12-09T06:46:18.736Z,96871.44
2022-12-09T06:48:48.184Z,96952.03
2022-12-09T06:51:16.394Z,96896.81
2022-12-09T06:53:43.605Z,96979.09
2022-12-09T06:56:13.448Z,96956.00
2022-12-09T06:58:43.033Z,96941.47
2022-12-09T07:01:19.261Z,96978.88
2022-12-09T07:03:50.308Z,96934.06
2022-12-09T07:06:25.287Z,96988.69
2022-12-09T07:08:52.729Z,96953.19
2022-12-09T07:11:20.038Z,96972.63
2022-12-09T07:13:48.683Z,96939.78
2022-12-09T07:16:15.610Z,96906.25
2022-12-09T07:18:43.915Z,96959.84
2022-12-09T07:21:13.953Z,96961.31
2022-12-09T07:23:42.207Z,96986.53
2022-12-09T07:26:10.292Z,96946.94
2022-12-09T07:28:40.001Z,96940.97
2022-12-09T07:31:08.420Z,96939.84
2022-12-09T07:33:38.151Z,96932.13
2022-12-09T07:36:05.076Z,96968.03
2022-12-09T07:38:33.433Z,96941.34
2022-12-09T07:41:08.874Z,96894.94
2022-12-09T07:43:36.747Z,96962.28
2022-12-09T07:46:07.579Z,96968.03
2022-12-09T07:48:35.257Z,96932.06
2022-12-09T07:51:02.896Z,96931.56
2022-12-09T07:53:30.896Z,96976.28
2022-12-09T07:56:03.951Z,96933.88
2022-12-09T07:58:31.163Z,96966.44
2022-12-09T08:00:57.877Z,96958.81
2022-12-09T08:03:24.752Z,96880.34
2022-12-09T08:05:53.815Z,96917.88
2022-12-09T08:08:21.095Z,96950.16
2022-12-09T08:10:48.399Z,96928.25
2022-12-09T08:13:15.929Z,96944.41
2022-12-09T08:15:42.863Z,96940.81
2022-12-09T08:18:10.297Z,96982.09
2022-12-09T08:20:37.230Z,96972.41
2022-12-09T08:23:05.776Z,96954.72
2022-12-09T08:25:32.482Z,96909.47
2022-12-09T08:28:00.544Z,96920.28
2022-12-09T08:30:27.552Z,96938.69
2022-12-09T08:32:54.804Z,96925.69
2022-12-09T08:35:21.738Z,96954.75
2022-12-09T08:37:49.796Z,96918.91
2022-12-09T08:40:18.807Z,96903.03
2022-12-09T08:42:45.894Z,96858.41
2022-12-09T08:45:13.299Z,96928.25
2022-12-09T08:47:40.484Z,96925.91
2022-12-09T08:50:08.510Z,96896.16
2022-12-09T08:52:40.323Z,96939.00
2022-12-09T08:55:07.788Z,96915.13
2022-12-09T08:57:34.614Z,96943.22
2022-12-09T09:00:02.266Z,96935.13
2022-12-09T09:02:30.064Z,96908.06
2022-12-09T09:04:57.601Z,96881.41
2022-12-09T09:07:24.767Z,96841.75
2022-12-09T09:09:52.225Z,96906.72
2022-12-09T09:12:20.849Z,96944.66
2022-12-09T09:14:47.716Z,96943.84
2022-12-09T09:17:15.303Z,96942.91
2022-12-09T09:19:43.364Z,96854.25
2022-12-09T09:22:12.494Z,96832.09
2022-12-09T09:24:39.833Z,96931.63
2022-12-09T09:27:08.977Z,96925.03
2022-12-09T09:29:35.820Z,96841.78
2022-12-09T09:32:03.090Z,96853.97
2022-12-09T09:34:30.612Z,96906.50
2022-12-09T09:36:57.989Z,96929.28
2022-12-09T09:39:25.017Z,96936.41
2022-12-09T09:42:01.918Z,96935.28
2022-12-09T09:44:36.034Z,96902.53
2022-12-09T09:47:15.129Z,96892.28
2022-12-09T09:50:02.781Z,96932.47
2022-12-09T09:52:31.109Z,96909.47
2022-12-09T09:54:58.679Z,96931.59
2022-12-09T09:57:57.721Z,96927.41
2022-12-09T10:00:38.820Z,96911.03
2022-12-09T10:03:30.500Z,96912.69
2022-12-09T10:06:09.038Z,96913.19
2022-12-09T10:08:47.829Z,96924.75
2022-12-09T10:11:26.004Z,96914.06
2022-12-09T10:14:03.050Z,96928.75
2022-12-09T10:16:48.382Z,96885.06
2022-12-09T10:19:30.981Z,96913.41
2022-12-09T10:22:03.648Z,96900.25
2022-12-09T10:24:40.045Z,96857.56
2022-12-09T10:27:29.131Z,96888.28
2022-12-09T10:30:05.752Z,96910.50
2022-12-09T10:32:35.641Z,96914.38
2022-12-09T10:35:20.829Z,96884.69
2022-12-09T10:37:51.971Z,96911.13
2022-12-09T10:40:32.199Z,96879.59
2022-12-09T10:43:19.194Z,96848.81
2022-12-09T10:48:49.713Z,96904.00
2022-12-09T10:51:17.505Z,96896.97
2022-12-09T10:53:52.609Z,96897.94
2022-12-09T10:56:32.666Z,96899.06
2022-12-09T10:59:22.513Z,96891.34
2022-12-09T11:02:19.102Z,96893.63
2022-12-09T11:04:48.454Z,96896.63
2022-12-09T11:07:19.895Z,96908.44
2022-12-09T11:10:05.363Z,96828.56
2022-12-09T11:12:40.888Z,96895.31
2022-12-09T11:15:26.611Z,96898.56
2022-12-09T11:18:03.597Z,96866.69
2022-12-09T11:20:32.906Z,96892.38
2022-12-09T11:23:06.804Z,96894.25
2022-12-09T11:25:38.655Z,96778.63
2022-12-09T11:28:17.438Z,96888.66
2022-12-09T11:31:27.152Z,96884.91
2022-12-09T11:34:34.261Z,96891.88
2022-12-09T11:37:02.705Z,96850.56
2022-12-09T11:39:32.841Z,96845.09
2022-12-09T11:42:18.618Z,96844.28
2022-12-09T11:45:20.077Z,96869.56
2022-12-09T11:48:23.058Z,96849.41
2022-12-09T11:50:38.106Z,96847.81
2022-12-09T11:53:07.006Z,96873.78
2022-12-09T11:55:37.920Z,96853.75
2022-12-09T11:58:10.688Z,96870.84
2022-12-09T12:00:45.655Z,96791.56
2022-12-09T12:03:31.788Z,96866.13
2022-12-09T12:06:04.807Z,96863.44
2022-12-09T12:08:45.476Z,96836.25
2022-12-09T12:11:17.272Z,96856.63
2022-12-09T12:13:56.972Z,96859.47
2022-12-09T12:16:45.477Z,96859.28
2022-12-09T12:19:14.318Z,96855.91
2022-12-09T12:21:51.421Z,96848.75
2022-12-09T12:24:49.472Z,96858.88
2022-12-09T12:27:30.901Z,96838.34
2022-12-09T12:30:11.974Z,96862.44
2022-12-09T12:36:25.431Z,96853.81
2022-12-09T12:39:10.450Z,96856.50
2022-12-09T12:41:57.427Z,96855.97
2022-12-09T12:45:00.752Z,96838.72
2022-12-09T12:47:48.725Z,96832.66
2022-12-09T12:50:38.913Z,96852.78
2022-12-09T12:53:32.258Z,96844.91
2022-12-09T12:56:22.514Z,96842.28
2022-12-09T12:59:04.421Z,96830.63
2022-12-09T13:01:34.329Z,96844.72
2022-12-09T13:04:17.243Z,96844.78
2022-12-09T13:07:25.989Z,96844.19
2022-12-09T13:10:01.631Z,96834.44
2022-12-09T13:12:53.515Z,96810.97
2022-12-09T13:15:34.741Z,96826.97
2022-12-09T13:18:11.959Z,96846.16
2022-12-09T13:20:49.635Z,96834.94
2022-12-09T13:23:34.920Z,96795.09
2022-12-09T13:26:42.791Z,96836.53
2022-12-09T13:29:36.295Z,96827.91
2022-12-09T13:32:23.052Z,96828.53
2022-12-09T13:34:54.520Z,96810.03
2022-12-09T13:37:30.352Z,96843.28
2022-12-09T13:39:58.813Z,96831.75
2022-12-09T13:42:46.926Z,96839.38
2022-12-09T13:45:43.442Z,96812.41
2022-12-09T13:48:16.985Z,96842.34
2022-12-09T13:50:57.489Z,96837.31
2022-12-09T13:53:45.970Z,96814.13
2022-12-09T13:56:24.343Z,96829.16
2022-12-09T13:59:09.930Z,96830.78
2022-12-09T14:01:46.944Z,96831.22
2022-12-09T14:04:16.516Z,96831.84
2022-12-09T14:06:46.377Z,96825.69
2022-12-09T14:09:45.032Z,96821.75
2022-12-09T14:12:15.088Z,96837.25
2022-12-09T14:14:44.582Z,96830.88
2022-12-09T14:17:19.037Z,96750.75
2022-12-09T14:19:53.650Z,96753.72
2022-12-09T14:22:25.344Z,96834.63
2022-12-09T14:24:57.309Z,96839.25
2022-12-09T14:27:31.655Z,96842.47
2022-12-09T14:30:04.444Z,96841.00
2022-12-09T14:32:36.742Z,96855.59
2022-12-09T14:35:09.303Z,96861.31
2022-12-09T14:37:47.971Z,96852.34
2022-12-09T14:40:14.939Z,96864.47
2022-12-09T14:42:50.709Z,96814.72
2022-12-09T14:45:36.245Z,96844.97
2022-12-09T14:48:16.195Z,96837.22
2022-12-09T14:50:42.965Z,96865.44
2022-12-09T14:53:21.907Z,96851.00
2022-12-09T14:55:49.957Z,96880.00
2022-12-09T14:58:22.188Z,96733.75
2022-12-09T15:01:00.547Z,96895.59
2022-12-09T15:03:34.127Z,96876.91
2022-12-09T15:06:05.812Z,96882.75
2022-12-09T15:08:38.087Z,96866.78
2022-12-09T15:11:07.995Z,96869.13
2022-12-09T15:13:37.765Z,96873.47
2022-12-09T15:16:18.685Z,96888.75
2022-12-09T15:18:50.524Z,96900.44
2022-12-09T15:21:33.408Z,96897.72
2022-12-09T15:24:04.643Z,96884.25
2022-12-09T15:26:33.571Z,96788.69
2022-12-09T15:29:01.487Z,96877.91
2022-12-09T15:31:30.825Z,96885.72
2022-12-09T15:34:09.079Z,96878.19
2022-12-09T15:36:40.158Z,96849.84
2022-12-09T15:39:18.650Z,96791.69
2022-12-09T15:42:08.126Z,96907.13
2022-12-09T15:44:59.011Z,96896.34
2022-12-09T15:47:34.406Z,96874.72
2022-12-09T15:50:22.116Z,96866.38
2022-12-09T15:52:53.652Z,96896.19
2022-12-09T15:55:39.695Z,96847.13
2022-12-09T15:58:12.951Z,96895.13
2022-12-09T16:00:42.308Z,96902.75
2022-12-09T16:03:10.617Z,96904.84
2022-12-09T16:05:42.012Z,96823.84
2022-12-09T16:08:09.825Z,96807.38
2022-12-09T16:10:47.013Z,96899.00
2022-12-09T16:13:16.596Z,96884.47
2022-12-09T16:15:50.756Z,96904.97
2022-12-09T16:18:26.653Z,96870.84
2022-12-09T16:21:15.123Z,96907.34
2022-12-09T16:23:48.356Z,96885.94
2022-12-09T16:26:26.599Z,96891.63
2022-12-09T16:29:15.016Z,96905.22
2022-12-09T16:31:41.741Z,96896.00
2022-12-09T16:34:22.010Z,96902.97
2022-12-09T16:36:54.605Z,96912.34
2022-12-09T16:39:24.046Z,96909.03
2022-12-09T16:41:50.437Z,96912.69
2022-12-09T16:44:27.251Z,96897.28
2022-12-09T16:47:11.602Z,96824.16
2022-12-09T16:49:39.977Z,96871.75
2022-12-09T16:52:08.279Z,96908.22
2022-12-09T16:54:37.731Z,96860.50
2022-12-09T16:57:04.441Z,96871.22
2022-12-09T16:59:37.890Z,96918.94
2022-12-09T17:02:14.380Z,96875.69
2022-12-09T17:04:41.175Z,96902.84
2022-12-09T17:07:09.650Z,96903.16
2022-12-09T17:09:36.179Z,96887.47
2022-12-09T17:12:03.034Z,96893.44
2022-12-09T17:14:29.817Z,96846.41
2022-12-09T17:16:56.668Z,96906.72
2022-12-09T17:19:25.388Z,96894.88
2022-12-09T17:21:53.427Z,96845.97
2022-12-09T17:24:22.792Z,96928.00
2022-12-09T17:26:49.359Z,96889.72
2022-12-09T17:29:15.932Z,96905.41
2022-12-09T17:31:42.524Z,96891.88
2022-12-09T17:34:09.182Z,96860.06
2022-12-09T17:36:35.967Z,96900.13
2022-12-09T17:39:04.261Z,96891.44
2022-12-09T17:41:31.826Z,96942.50
2022-12-09T17:44:01.396Z,96926.53
2022-12-09T17:46:28.192Z,96906.22
2022-12-09T17:48:54.934Z,96905.81
2022-12-09T17:51:22.113Z,96888.59
2022-12-09T17:53:52.580Z,96949.88
2022-12-09T17:56:21.816Z,96947.00
2022-12-09T17:58:59.047Z,96882.34
2022-12-09T18:01:26.551Z,96959.91
2022-12-09T18:04:02.583Z,96960.47
2022-12-09T18:06:34.776Z,96902.59
2022-12-09T18:09:03.882Z,96955.47
2022-12-09T18:11:33.172Z,96968.00
2022-12-09T18:14:02.480Z,96954.75
2022-12-09T18:16:31.102Z,96932.16
2022-12-09T18:19:15.176Z,96837.63
2022-12-09T18:21:42.868Z,96886.13
2022-12-09T18:24:09.810Z,96875.91
2022-12-09T18:26:41.319Z,96949.63
2022-12-09T18:29:11.306Z,96924.81
2022-12-09T18:31:40.069Z,96929.13
2022-12-09T18:34:08.004Z,96950.25
2022-12-09T18:36:34.588Z,96891.91
2022-12-09T18:39:01.227Z,96964.41
2022-12-09T18:41:31.452Z,96956.22
2022-12-09T18:44:01.029Z,96963.22
2022-12-09T18:46:32.667Z,96964.25
2022-12-09T18:49:21.103Z,96963.84
2022-12-09T18:51:50.764Z,96967.97
2022-12-09T18:54:23.720Z,96972.44
2022-12-09T18:56:51.120Z,96924.41
2022-12-09T18:59:20.799Z,96974.94
2022-12-09T19:01:49.047Z,96956.56
2022-12-09T19:04:19.822Z,96980.19
2022-12-09T19:06:48.549Z,96949.50
2022-12-09T19:09:17.475Z,96928.28
2022-12-09T19:11:46.415Z,96983.72
2022-12-09T19:14:15.928Z,96938.84
2022-12-09T19:16:43.577Z,96985.06
2022-12-09T19:19:16.750Z,96959.09
2022-12-09T19:21:44.577Z,96986.06
2022-12-09T19:24:19.682Z,96986.44
2022-12-09T19:26:49.959Z,96975.94
2022-12-09T19:29:18.075Z,96973.78
2022-12-09T19:31:47.131Z,96994.03
2022-12-09T19:34:20.014Z,96965.56
2022-12-09T19:36:49.827Z,96942.00
2022-12-09T19:39:18.914Z,96977.94
2022-12-09T19:41:48.446Z,96992.34
2022-12-09T19:44:37.150Z,96951.00
2022-12-09T19:47:05.394Z,96948.72
2022-12-09T19:49:36.436Z,96920.25
2022-12-09T19:52:03.503Z,96946.28
2022-12-09T19:54:30.034Z,96962.81
2022-12-09T19:56:57.002Z,96958.69
2022-12-09T19:59:25.526Z,97002.84
2022-12-09T20:01:53.836Z,96982.69
2022-12-09T20:04:48.289Z,97002.63
2022-12-09T20:07:09.929Z,97001.09
2022-12-09T20:09:40.008Z,96992.13
2022-12-09T20:12:07.880Z,96991.03
2022-12-09T20:14:37.234Z,96985.75
2022-12-09T20:17:08.220Z,96988.28
2022-12-09T20:19:38.019Z,96930.66
2022-12-09T20:22:05.030Z,96931.38
2022-12-09T20:24:31.538Z,96957.00
2022-12-09T20:26:59.808Z,96936.34
2022-12-09T20:29:26.529Z,97003.59
2022-12-09T20:31:54.158Z,96990.34
2022-12-09T20:34:20.757Z,96859.31
2022-12-09T20:36:48.482Z,96975.22
2022-12-09T20:39:18.247Z,97021.91
2022-12-09T20:41:47.610Z,96940.25
2022-12-09T20:44:17.219Z,97005.97
2022-12-09T20:46:49.807Z,97019.06
2022-12-09T20:49:17.424Z,97017.34
2022-12-09T20:51:49.461Z,96996.50
2022-12-09T20:54:17.124Z,96994.69
2022-12-09T20:56:44.066Z,97017.59
2022-12-09T20:59:15.059Z,96940.13
2022-12-09T21:01:43.532Z,97016.16
2022-12-09T21:04:11.009Z,97019.84
2022-12-09T21:06:42.224Z,97037.63
2022-12-09T21:09:15.719Z,97031.91
2022-12-09T21:11:42.750Z,97005.97
2022-12-09T21:14:10.990Z,97029.91
2022-12-09T21:16:40.503Z,97029.56
2022-12-09T21:19:10.363Z,96970.63
2022-12-09T21:21:45.019Z,97040.34
2022-12-09T21:24:14.290Z,97018.47
2022-12-09T21:26:42.359Z,97035.97
2022-12-09T21:29:11.355Z,97025.56
2022-12-09T21:31:44.846Z,97039.09
2022-12-09T21:34:11.369Z,97037.63
2022-12-09T21:36:42.395Z,96965.69
2022-12-09T21:39:12.014Z,96978.34
2022-12-09T21:41:38.773Z,96995.31
2022-12-09T21:44:07.776Z,97040.50
2022-12-09T21:46:37.724Z,96981.72
2022-12-09T21:49:06.474Z,96974.69
2022-12-09T21:51:35.139Z,97042.28
2022-12-09T21:54:03.427Z,96998.09
2022-12-09T21:56:32.784Z,97031.81
2022-12-09T21:58:59.836Z,97040.34
2022-12-09T22:01:38.846Z,97010.94
2022-12-09T22:04:07.922Z,96976.22
2022-12-09T22:06:34.917Z,96947.88
2022-12-09T22:09:01.935Z,97040.34
2022-12-09T22:11:32.285Z,97044.84
2022-12-09T22:14:00.718Z,97030.78
2022-12-09T22:16:31.053Z,97015.72
2022-12-09T22:18:59.928Z,97047.84
2022-12-09T22:21:29.285Z,97049.97
2022-12-09T22:24:00.672Z,97008.56
2022-12-09T22:26:27.906Z,97048.25
2022-12-09T22:28:55.111Z,97053.75
2022-12-09T22:31:24.267Z,97049.31
2022-12-09T22:33:54.972Z,97048.66
2022-12-09T22:36:23.059Z,97048.75
2022-12-09T22:38:52.170Z,97047.78
2022-12-09T22:41:21.656Z,97031.19
2022-12-09T22:43:50.972Z,97066.81
2022-12-09T22:46:22.872Z,97060.56
2022-12-09T22:48:51.048Z,97046.91
2022-12-09T22:51:20.952Z,96961.75
2022-12-09T22:53:49.421Z,97073.31
2022-12-09T22:56:16.676Z,96936.72
2022-12-09T22:58:46.625Z,97062.72
2022-12-09T23:01:22.091Z,97053.19
2022-12-09T23:03:49.416Z,97037.25
2022-12-09T23:06:16.344Z,97067.31
2022-12-09T23:08:45.494Z,97059.25
2022-12-09T23:11:19.673Z,97044.81
2022-12-09T23:13:47.840Z,97064.19
2022-12-09T23:16:20.173Z,97038.78
2022-12-09T23:18:50.488Z,97067.47
2022-12-09T23:21:43.339Z,97070.53
2022-12-09T23:24:13.878Z,97057.22
2022-12-09T23:26:41.837Z,97050.34
2022-12-09T23:29:16.417Z,97040.00
2022-12-09T23:31:43.607Z,97082.19
2022-12-09T23:34:12.486Z,97064.66
2022-12-09T23:36:41.847Z,97077.56
2022-12-09T23:39:12.251Z,97066.50
2022-12-09T23:41:40.628Z,97077.69
2022-12-09T23:44:14.130Z,97067.03
2022-12-09T23:46:41.048Z,97057.47
2022-12-09T23:49:08.274Z,96985.94
2022-12-09T23:51:38.361Z,97075.72
2022-12-09T23:54:07.835Z,96982.25
2022-12-09T23:56:38.652Z,97050.72
2022-12-09T23:59:08.121Z,97019.34
